Time,TemperatureF,DewpointF,PressureIn,WindDirection,WindDirectionDegrees,WindSpeedMPH,WindSpeedGustMPH,Humidity,HourlyPrecipIn,Conditions,Clouds,dailyrainin,SoftwareType,DateUTC
2013-08-11 00:00:00,84.0,74.0,30.08,SSE,150,15.0,16.0,71,-99.99,,,-99.99,,2013-08-11 05:00:00,
2013-08-11 00:22:00,84.0,74.0,30.08,SSE,150,15.0,16.0,71,-99.99,,,-99.99,,2013-08-11 05:22:00,
2013-08-11 00:33:00,84.0,74.0,30.08,SSE,150,15.0,16.0,71,-99.99,,,-99.99,,2013-08-11 05:33:00,
2013-08-11 00:43:00,84.0,74.0,30.08,SSE,150,15.0,16.0,71,-99.99,,,-99.99,,2013-08-11 05:43:00,
2013-08-11 00:52:00,84.0,74.0,30.08,SSE,150,15.0,16.0,71,-99.99,,,-99.99,,2013-08-11 05:52:00,
2013-08-11 01:00:00,84.0,74.0,30.08,SSE,160,14.0,16.0,71,-99.99,,,-99.99,,2013-08-11 06:00:00,
2013-08-11 01:32:00,84.0,74.0,30.08,SSE,160,14.0,16.0,71,-99.99,,,-99.99,,2013-08-11 06:32:00,
2013-08-11 01:43:00,84.0,74.0,30.08,SSE,160,14.0,16.0,71,-99.99,,,-99.99,,2013-08-11 06:43:00,
2013-08-11 01:53:00,84.0,74.0,30.08,SSE,160,14.0,16.0,71,-99.99,,,-99.99,,2013-08-11 06:53:00,
2013-08-11 02:00:00,84.0,74.0,30.07,SE,140,15.0,17.0,70,-99.99,,,-99.99,,2013-08-11 07:00:00,
2013-08-11 02:21:00,84.0,74.0,30.07,SE,140,15.0,17.0,70,-99.99,,,-99.99,,2013-08-11 07:21:00,
2013-08-11 02:32:00,84.0,74.0,30.07,SE,140,15.0,17.0,70,-99.99,,,-99.99,,2013-08-11 07:32:00,
2013-08-11 02:43:00,84.0,74.0,30.07,SE,140,15.0,17.0,70,-99.99,,,-99.99,,2013-08-11 07:43:00,
2013-08-11 02:52:00,84.0,74.0,30.07,SE,140,15.0,17.0,70,-99.99,,,-99.99,,2013-08-11 07:52:00,
2013-08-11 03:21:00,84.0,73.0,30.07,SSE,150,15.0,16.0,68,-99.99,,,-99.99,,2013-08-11 08:21:00,
2013-08-11 03:33:00,84.0,73.0,30.07,SSE,150,15.0,16.0,68,-99.99,,,-99.99,,2013-08-11 08:33:00,
2013-08-11 03:43:00,84.0,73.0,30.07,SSE,150,15.0,16.0,68,-99.99,,,-99.99,,2013-08-11 08:43:00,
2013-08-11 04:21:00,84.0,74.0,30.07,SE,140,13.0,14.0,71,-99.99,,,-99.99,,2013-08-11 09:21:00,
2013-08-11 04:32:00,84.0,74.0,30.07,SE,140,13.0,14.0,71,-99.99,,,-99.99,,2013-08-11 09:32:00,
2013-08-11 04:42:00,84.0,74.0,30.07,SE,140,13.0,14.0,71,-99.99,,,-99.99,,2013-08-11 09:42:00,
2013-08-11 04:53:00,84.0,74.0,30.07,SE,140,13.0,14.0,71,-99.99,,,-99.99,,2013-08-11 09:53:00,
2013-08-11 05:00:00,84.0,74.0,30.08,SE,130,10.0,12.0,72,-99.99,,,-99.99,,2013-08-11 10:00:00,
2013-08-11 05:21:00,84.0,74.0,30.08,SE,130,10.0,12.0,72,-99.99,,,-99.99,,2013-08-11 10:21:00,
2013-08-11 05:32:00,84.0,74.0,30.08,SE,130,10.0,12.0,72,-99.99,,,-99.99,,2013-08-11 10:32:00,
2013-08-11 06:00:00,84.0,74.0,30.08,SE,140,10.0,12.0,72,-99.99,,,-99.99,,2013-08-11 11:00:00,
2013-08-11 06:21:00,84.0,74.0,30.08,SE,140,10.0,12.0,72,-99.99,,,-99.99,,2013-08-11 11:21:00,
2013-08-11 06:32:00,84.0,74.0,30.08,SE,140,10.0,12.0,72,-99.99,,,-99.99,,2013-08-11 11:32:00,
2013-08-11 06:44:00,84.0,74.0,30.08,SE,140,10.0,12.0,72,-99.99,,,-99.99,,2013-08-11 11:44:00,
2013-08-11 06:55:00,84.0,74.0,30.08,SE,140,10.0,12.0,72,-99.99,,,-99.99,,2013-08-11 11:55:00,
2013-08-11 07:00:00,84.0,73.0,30.10,SE,140,6.0,6.0,69,-99.99,,,-99.99,,2013-08-11 12:00:00,
2013-08-11 07:22:00,84.0,73.0,30.10,SE,140,6.0,6.0,69,-99.99,,,-99.99,,2013-08-11 12:22:00,
2013-08-11 07:32:00,84.0,73.0,30.10,SE,140,6.0,6.0,69,-99.99,,,-99.99,,2013-08-11 12:32:00,
2013-08-11 07:42:00,84.0,73.0,30.10,SE,140,6.0,6.0,69,-99.99,,,-99.99,,2013-08-11 12:42:00,
2013-08-11 07:52:00,84.0,73.0,30.10,SE,140,6.0,6.0,69,-99.99,,,-99.99,,2013-08-11 12:52:00,
2013-08-11 08:00:00,84.0,74.0,30.11,SE,130,8.0,9.0,71,-99.99,,,-99.99,,2013-08-11 13:00:00,
2013-08-11 08:43:00,84.0,74.0,30.11,SE,130,8.0,9.0,71,-99.99,,,-99.99,,2013-08-11 13:43:00,
2013-08-11 08:53:00,84.0,74.0,30.11,SE,130,8.0,9.0,71,-99.99,,,-99.99,,2013-08-11 13:53:00,
2013-08-11 09:00:00,84.0,76.0,30.13,ESE,120,9.0,10.0,74,-99.99,,,-99.99,,2013-08-11 14:00:00,
2013-08-11 09:32:00,84.0,76.0,30.13,ESE,120,9.0,10.0,74,-99.99,,,-99.99,,2013-08-11 14:32:00,
2013-08-11 09:44:00,84.0,76.0,30.13,ESE,120,9.0,10.0,74,-99.99,,,-99.99,,2013-08-11 14:44:00,
2013-08-11 10:00:00,85.0,75.0,30.12,SE,130,10.0,13.0,72,-99.99,,,-99.99,,2013-08-11 15:00:00,
2013-08-11 10:33:00,85.0,75.0,30.12,SE,130,10.0,13.0,72,-99.99,,,-99.99,,2013-08-11 15:33:00,
2013-08-11 10:43:00,85.0,75.0,30.12,SE,130,10.0,13.0,72,-99.99,,,-99.99,,2013-08-11 15:43:00,
2013-08-11 10:53:00,85.0,75.0,30.12,SE,130,10.0,13.0,72,-99.99,,,-99.99,,2013-08-11 15:53:00,
2013-08-11 12:00:00,85.0,75.0,30.12,SE,140,9.0,12.0,72,-99.99,,,-99.99,,2013-08-11 17:00:00,
2013-08-11 13:00:00,85.0,76.0,30.12,SE,130,9.0,10.0,74,-99.99,,,-99.99,,2013-08-11 18:00:00,
2013-08-11 13:35:00,85.0,76.0,30.12,SE,130,9.0,10.0,74,-99.99,,,-99.99,,2013-08-11 18:35:00,
2013-08-11 13:52:00,85.0,76.0,30.12,SE,130,9.0,10.0,74,-99.99,,,-99.99,,2013-08-11 18:52:00,
2013-08-11 14:00:00,85.0,75.0,30.10,SE,140,13.0,14.0,72,-99.99,,,-99.99,,2013-08-11 19:00:00,
2013-08-11 14:32:00,85.0,75.0,30.10,SE,140,13.0,14.0,72,-99.99,,,-99.99,,2013-08-11 19:32:00,
2013-08-11 14:43:00,85.0,75.0,30.10,SE,140,13.0,14.0,72,-99.99,,,-99.99,,2013-08-11 19:43:00,
2013-08-11 14:54:00,85.0,75.0,30.10,SE,140,13.0,14.0,72,-99.99,,,-99.99,,2013-08-11 19:54:00,
2013-08-11 15:00:00,85.0,76.0,30.09,SE,140,13.0,15.0,75,-99.99,,,-99.99,,2013-08-11 20:00:00,
2013-08-11 15:22:00,85.0,76.0,30.09,SE,140,13.0,15.0,75,-99.99,,,-99.99,,2013-08-11 20:22:00,
2013-08-11 15:33:00,85.0,76.0,30.09,SE,140,13.0,15.0,75,-99.99,,,-99.99,,2013-08-11 20:33:00,
2013-08-11 15:43:00,85.0,76.0,30.09,SE,140,13.0,15.0,75,-99.99,,,-99.99,,2013-08-11 20:43:00,
2013-08-11 15:53:00,85.0,76.0,30.09,SE,140,13.0,15.0,75,-99.99,,,-99.99,,2013-08-11 20:53:00,
2013-08-11 16:21:00,83.0,77.0,30.09,SE,140,15.0,16.0,84,-99.99,,,-99.99,,2013-08-11 21:21:00,
2013-08-11 16:33:00,83.0,77.0,30.09,SE,140,15.0,16.0,84,-99.99,,,-99.99,,2013-08-11 21:33:00,
2013-08-11 17:00:00,84.0,76.0,30.09,SE,140,10.0,12.0,75,-99.99,,,-99.99,,2013-08-11 22:00:00,
2013-08-11 17:32:00,84.0,76.0,30.09,SE,140,10.0,12.0,75,-99.99,,,-99.99,,2013-08-11 22:32:00,
2013-08-11 17:53:00,84.0,76.0,30.09,SE,140,10.0,12.0,75,-99.99,,,-99.99,,2013-08-11 22:53:00,
2013-08-11 18:00:00,84.0,77.0,30.09,SE,140,13.0,14.0,79,-99.99,,,-99.99,,2013-08-11 23:00:00,
2013-08-11 18:53:00,84.0,77.0,30.09,SE,140,13.0,14.0,79,-99.99,,,-99.99,,2013-08-11 23:53:00,
2013-08-11 19:00:00,83.0,77.0,30.09,SSE,150,16.0,18.0,81,-99.99,,,-99.99,,2013-08-12 00:00:00,
2013-08-11 19:33:00,83.0,77.0,30.09,SSE,150,16.0,18.0,81,-99.99,,,-99.99,,2013-08-12 00:33:00,
2013-08-11 19:43:00,83.0,77.0,30.09,SSE,150,16.0,18.0,81,-99.99,,,-99.99,,2013-08-12 00:43:00,
2013-08-11 19:52:00,83.0,77.0,30.09,SSE,150,16.0,18.0,81,-99.99,,,-99.99,,2013-08-12 00:52:00,
2013-08-11 20:00:00,83.0,75.0,30.08,SSE,150,13.0,13.0,74,-99.99,,,-99.99,,2013-08-12 01:00:00,
2013-08-11 20:32:00,83.0,75.0,30.08,SSE,150,13.0,13.0,74,-99.99,,,-99.99,,2013-08-12 01:32:00,
2013-08-11 20:53:00,83.0,75.0,30.08,SSE,150,13.0,13.0,74,-99.99,,,-99.99,,2013-08-12 01:53:00,
2013-08-11 21:00:00,84.0,76.0,30.12,South,170,8.0,9.0,78,-99.99,,,-99.99,,2013-08-12 02:00:00,
2013-08-11 21:33:00,84.0,76.0,30.12,South,170,8.0,9.0,78,-99.99,,,-99.99,,2013-08-12 02:33:00,
2013-08-11 21:52:00,84.0,76.0,30.12,South,170,8.0,9.0,78,-99.99,,,-99.99,,2013-08-12 02:52:00,
2013-08-11 22:00:00,84.0,74.0,30.12,South,170,8.0,9.0,72,-99.99,,,-99.99,,2013-08-12 03:00:00,
2013-08-11 22:52:00,84.0,74.0,30.12,South,170,8.0,9.0,72,-99.99,,,-99.99,,2013-08-12 03:52:00,
2013-08-11 23:00:00,84.0,73.0,30.11,SSE,160,9.0,12.0,70,-99.99,,,-99.99,,2013-08-12 04:00:00,
2013-08-11 23:43:00,84.0,73.0,30.11,SSE,160,9.0,12.0,70,-99.99,,,-99.99,,2013-08-12 04:43:00,
2013-08-11 23:52:00,84.0,73.0,30.11,SSE,160,9.0,12.0,70,-99.99,,,-99.99,,2013-08-12 04:52:00,